sensor_id;sensor_type;location;lat;lon;timestamp;pressure;altitude;pressure_sealevel;temperature;humidity
15678;BME280;7939;50.814;6.368;2023-07-20T00:01:29;99771.16;;;23.69;51.45
15678;BME280;7939;50.814;6.368;2023-07-20T00:03:56;99766.84;;;23.68;51.58
15678;BME280;7939;50.814;6.368;2023-07-20T00:06:25;99760.81;;;23.67;51.46
15678;BME280;7939;50.814;6.368;2023-07-20T00:08:53;99767.13;;;23.63;51.93
15678;BME280;7939;50.814;6.368;2023-07-20T00:11:20;99773.19;;;23.64;51.89
15678;BME280;7939;50.814;6.368;2023-07-20T00:13:47;99761.97;;;23.62;51.55
15678;BME280;7939;50.814;6.368;2023-07-20T00:16:13;99766.34;;;23.61;51.89
15678;BME280;7939;50.814;6.368;2023-07-20T00:18:40;99769.00;;;23.60;51.87
15678;BME280;7939;50.814;6.368;2023-07-20T00:21:06;99766.50;;;23.58;51.82
15678;BME280;7939;50.814;6.368;2023-07-20T00:23:34;99761.34;;;23.57;51.76
15678;BME280;7939;50.814;6.368;2023-07-20T00:26:01;99766.56;;;23.57;52.24
15678;BME280;7939;50.814;6.368;2023-07-20T00:28:28;99762.25;;;23.56;51.86
15678;BME280;7939;50.814;6.368;2023-07-20T00:30:54;99759.75;;;23.54;52.01
15678;BME280;7939;50.814;6.368;2023-07-20T00:33:21;99748.56;;;23.52;52.31
15678;BME280;7939;50.814;6.368;2023-07-20T00:35:48;99749.56;;;23.50;52.21
15678;BME280;7939;50.814;6.368;2023-07-20T00:38:15;99748.72;;;23.49;52.42
15678;BME280;7939;50.814;6.368;2023-07-20T00:40:43;99744.50;;;23.47;52.27
15678;BME280;7939;50.814;6.368;2023-07-20T00:43:10;99746.38;;;23.45;52.46
15678;BME280;7939;50.814;6.368;2023-07-20T00:45:37;99747.28;;;23.43;52.21
15678;BME280;7939;50.814;6.368;2023-07-20T00:48:06;99749.97;;;23.42;52.42
15678;BME280;7939;50.814;6.368;2023-07-20T00:50:33;99744.75;;;23.42;52.24
15678;BME280;7939;50.814;6.368;2023-07-20T00:53:02;99750.06;;;23.40;52.10
15678;BME280;7939;50.814;6.368;2023-07-20T00:55:30;99746.69;;;23.38;52.23
15678;BME280;7939;50.814;6.368;2023-07-20T00:57:59;99749.38;;;23.37;52.27
15678;BME280;7939;50.814;6.368;2023-07-20T01:00:26;99748.53;;;23.36;52.22
15678;BME280;7939;50.814;6.368;2023-07-20T01:02:53;99752.16;;;23.34;52.33
15678;BME280;7939;50.814;6.368;2023-07-20T01:05:20;99746.09;;;23.33;52.30
15678;BME280;7939;50.814;6.368;2023-07-20T01:07:53;99754.84;;;23.32;52.39
15678;BME280;7939;50.814;6.368;2023-07-20T01:10:27;99753.13;;;23.31;52.14
15678;BME280;7939;50.814;6.368;2023-07-20T01:12:56;99757.59;;;23.29;52.29
15678;BME280;7939;50.814;6.368;2023-07-20T01:15:24;99741.97;;;23.29;52.51
15678;BME280;7939;50.814;6.368;2023-07-20T01:17:51;99751.63;;;23.27;52.66
15678;BME280;7939;50.814;6.368;2023-07-20T01:20:20;99752.56;;;23.26;52.65
15678;BME280;7939;50.814;6.368;2023-07-20T01:23:00;99752.72;;;23.23;52.37
15678;BME280;7939;50.814;6.368;2023-07-20T01:25:53;99756.16;;;23.24;52.79
15678;BME280;7939;50.814;6.368;2023-07-20T01:28:49;99756.34;;;23.21;52.17
15678;BME280;7939;50.814;6.368;2023-07-20T01:31:25;99748.56;;;23.19;52.51
15678;BME280;7939;50.814;6.368;2023-07-20T01:33:55;99742.50;;;23.19;52.53
15678;BME280;7939;50.814;6.368;2023-07-20T01:36:24;99745.22;;;23.17;52.17
15678;BME280;7939;50.814;6.368;2023-07-20T01:38:52;99742.78;;;23.14;52.39
15678;BME280;7939;50.814;6.368;2023-07-20T01:41:19;99746.22;;;23.14;52.42
15678;BME280;7939;50.814;6.368;2023-07-20T01:43:46;99748.03;;;23.12;52.66
15678;BME280;7939;50.814;6.368;2023-07-20T01:46:13;99748.13;;;23.11;52.76
15678;BME280;7939;50.814;6.368;2023-07-20T01:48:41;99744.69;;;23.10;52.44
15678;BME280;7939;50.814;6.368;2023-07-20T01:51:08;99750.00;;;23.09;52.54
15678;BME280;7939;50.814;6.368;2023-07-20T01:53:35;99744.88;;;23.07;52.31
15678;BME280;7939;50.814;6.368;2023-07-20T01:56:02;99741.41;;;23.07;52.42
15678;BME280;7939;50.814;6.368;2023-07-20T01:58:28;99742.41;;;23.04;52.24
15678;BME280;7939;50.814;6.368;2023-07-20T02:00:55;99739.03;;;23.02;52.54
15678;BME280;7939;50.814;6.368;2023-07-20T02:03:21;99735.50;;;23.03;52.35
15678;BME280;7939;50.814;6.368;2023-07-20T02:05:52;99734.75;;;23.01;52.49
15678;BME280;7939;50.814;6.368;2023-07-20T02:08:19;99739.19;;;22.99;52.69
15678;BME280;7939;50.814;6.368;2023-07-20T02:10:47;99738.34;;;22.99;52.48
15678;BME280;7939;50.814;6.368;2023-07-20T02:13:13;99745.41;;;22.97;52.84
15678;BME280;7939;50.814;6.368;2023-07-20T02:15:41;99741.13;;;22.96;52.40
15678;BME280;7939;50.814;6.368;2023-07-20T02:18:07;99746.34;;;22.96;52.48
15678;BME280;7939;50.814;6.368;2023-07-20T02:20:34;99736.84;;;22.95;52.39
15678;BME280;7939;50.814;6.368;2023-07-20T02:23:02;99742.09;;;22.93;52.46
15678;BME280;7939;50.814;6.368;2023-07-20T02:25:29;99734.38;;;22.92;52.21
15678;BME280;7939;50.814;6.368;2023-07-20T02:27:56;99737.91;;;22.91;52.51
15678;BME280;7939;50.814;6.368;2023-07-20T02:30:23;99732.78;;;22.89;52.47
15678;BME280;7939;50.814;6.368;2023-07-20T02:32:50;99731.94;;;22.88;52.41
15678;BME280;7939;50.814;6.368;2023-07-20T02:35:17;99738.06;;;22.87;52.54
15678;BME280;7939;50.814;6.368;2023-07-20T02:37:44;99740.72;;;22.86;52.69
15678;BME280;7939;50.814;6.368;2023-07-20T02:40:12;99729.53;;;22.84;52.53
15678;BME280;7939;50.814;6.368;2023-07-20T02:42:38;99733.91;;;22.83;52.52
15678;BME280;7939;50.814;6.368;2023-07-20T02:45:06;99735.72;;;22.81;52.35
15678;BME280;7939;50.814;6.368;2023-07-20T02:47:33;99747.06;;;22.80;52.54
15678;BME280;7939;50.814;6.368;2023-07-20T02:50:00;99735.81;;;22.80;52.21
15678;BME280;7939;50.814;6.368;2023-07-20T02:52:26;99741.94;;;22.79;52.46
15678;BME280;7939;50.814;6.368;2023-07-20T02:54:54;99743.78;;;22.77;52.81
15678;BME280;7939;50.814;6.368;2023-07-20T02:57:22;99744.72;;;22.76;52.55
15678;BME280;7939;50.814;6.368;2023-07-20T02:59:49;99744.72;;;22.76;52.84
15678;BME280;7939;50.814;6.368;2023-07-20T03:02:15;99750.81;;;22.75;52.51
15678;BME280;7939;50.814;6.368;2023-07-20T03:04:42;99753.53;;;22.73;52.51
15678;BME280;7939;50.814;6.368;2023-07-20T03:07:09;99757.81;;;22.74;52.34
15678;BME280;7939;50.814;6.368;2023-07-20T03:09:35;99753.59;;;22.72;52.50
15678;BME280;7939;50.814;6.368;2023-07-20T03:12:03;99758.81;;;22.72;52.54
15678;BME280;7939;50.814;6.368;2023-07-20T03:14:31;99751.91;;;22.71;52.64
15678;BME280;7939;50.814;6.368;2023-07-20T03:16:58;99756.28;;;22.70;52.62
15678;BME280;7939;50.814;6.368;2023-07-20T03:19:24;99753.69;;;22.70;52.69
15678;BME280;7939;50.814;6.368;2023-07-20T03:21:51;99763.31;;;22.68;52.60
15678;BME280;7939;50.814;6.368;2023-07-20T03:24:17;99754.63;;;22.69;52.65
15678;BME280;7939;50.814;6.368;2023-07-20T03:26:44;99756.44;;;22.67;52.77
15678;BME280;7939;50.814;6.368;2023-07-20T03:29:11;99756.53;;;22.66;52.32
15678;BME280;7939;50.814;6.368;2023-07-20T03:31:39;99751.44;;;22.62;52.64
15678;BME280;7939;50.814;6.368;2023-07-20T03:34:06;99750.59;;;22.62;52.84
15678;BME280;7939;50.814;6.368;2023-07-20T03:36:34;99742.13;;;22.58;52.60
15678;BME280;7939;50.814;6.368;2023-07-20T03:39:00;99746.41;;;22.59;52.44
15678;BME280;7939;50.814;6.368;2023-07-20T03:41:28;99744.81;;;22.57;52.83
15678;BME280;7939;50.814;6.368;2023-07-20T03:43:54;99748.31;;;22.56;52.86
15678;BME280;7939;50.814;6.368;2023-07-20T03:46:21;99749.22;;;22.55;52.78
15678;BME280;7939;50.814;6.368;2023-07-20T03:48:49;99747.63;;;22.52;52.83
15678;BME280;7939;50.814;6.368;2023-07-20T03:51:16;99752.84;;;22.52;52.51
15678;BME280;7939;50.814;6.368;2023-07-20T03:53:42;99758.06;;;22.52;52.52
15678;BME280;7939;50.814;6.368;2023-07-20T03:56:09;99757.28;;;22.50;52.49
15678;BME280;7939;50.814;6.368;2023-07-20T03:58:35;99755.66;;;22.48;52.48
15678;BME280;7939;50.814;6.368;2023-07-20T04:01:02;99757.50;;;22.46;52.66
15678;BME280;7939;50.814;6.368;2023-07-20T04:03:29;99765.31;;;22.46;52.68
15678;BME280;7939;50.814;6.368;2023-07-20T04:05:57;99764.47;;;22.45;52.77
15678;BME280;7939;50.814;6.368;2023-07-20T04:08:24;99769.75;;;22.44;52.89
15678;BME280;7939;50.814;6.368;2023-07-20T04:10:51;99775.88;;;22.43;52.70
15678;BME280;7939;50.814;6.368;2023-07-20T04:13:18;99774.13;;;22.43;52.97
15678;BME280;7939;50.814;6.368;2023-07-20T04:15:45;99782.00;;;22.42;52.66
15678;BME280;7939;50.814;6.368;2023-07-20T04:18:11;99782.84;;;22.42;52.57
15678;BME280;7939;50.814;6.368;2023-07-20T04:20:38;99790.75;;;22.41;52.94
15678;BME280;7939;50.814;6.368;2023-07-20T04:23:06;99790.75;;;22.41;52.63
15678;BME280;7939;50.814;6.368;2023-07-20T04:25:33;99795.19;;;22.39;52.88
15678;BME280;7939;50.814;6.368;2023-07-20T04:28:05;99792.63;;;22.37;52.90
15678;BME280;7939;50.814;6.368;2023-07-20T04:30:34;99794.41;;;22.37;52.77
15678;BME280;7939;50.814;6.368;2023-07-20T04:33:00;99791.88;;;22.35;52.89
15678;BME280;7939;50.814;6.368;2023-07-20T04:35:46;99796.16;;;22.36;52.64
15678;BME280;7939;50.814;6.368;2023-07-20T04:38:15;99794.47;;;22.35;52.81
15678;BME280;7939;50.814;6.368;2023-07-20T04:40:43;99802.38;;;22.33;52.69
15678;BME280;7939;50.814;6.368;2023-07-20T04:43:10;99802.38;;;22.33;52.93
15678;BME280;7939;50.814;6.368;2023-07-20T04:45:36;99793.81;;;22.31;53.08
15678;BME280;7939;50.814;6.368;2023-07-20T04:48:05;99797.25;;;22.32;53.17
15678;BME280;7939;50.814;6.368;2023-07-20T04:50:32;99803.34;;;22.31;52.85
15678;BME280;7939;50.814;6.368;2023-07-20T04:52:59;99799.91;;;22.30;53.01
15678;BME280;7939;50.814;6.368;2023-07-20T04:55:28;99794.69;;;22.30;53.10
15678;BME280;7939;50.814;6.368;2023-07-20T04:57:55;99792.09;;;22.30;53.11
15678;BME280;7939;50.814;6.368;2023-07-20T05:00:21;99787.81;;;22.29;53.12
15678;BME280;7939;50.814;6.368;2023-07-20T05:02:48;99794.69;;;22.30;53.13
15678;BME280;7939;50.814;6.368;2023-07-20T05:05:15;99799.00;;;22.31;53.04
15678;BME280;7939;50.814;6.368;2023-07-20T05:07:42;99799.91;;;22.30;53.45
15678;BME280;7939;50.814;6.368;2023-07-20T05:10:09;99801.66;;;22.30;53.22
15678;BME280;7939;50.814;6.368;2023-07-20T05:12:37;99793.84;;;22.30;53.29
15678;BME280;7939;50.814;6.368;2023-07-20T05:15:04;99797.38;;;22.29;53.31
15678;BME280;7939;50.814;6.368;2023-07-20T05:17:31;99795.69;;;22.28;53.35
15678;BME280;7939;50.814;6.368;2023-07-20T05:19:58;99790.50;;;22.28;53.31
15678;BME280;7939;50.814;6.368;2023-07-20T05:22:25;99796.53;;;22.28;53.38
15678;BME280;7939;50.814;6.368;2023-07-20T05:24:51;99797.47;;;22.27;53.33
15678;BME280;7939;50.814;6.368;2023-07-20T05:27:18;99794.00;;;22.27;53.33
15678;BME280;7939;50.814;6.368;2023-07-20T05:29:46;99792.34;;;22.26;53.75
15678;BME280;7939;50.814;6.368;2023-07-20T05:32:13;99798.38;;;22.26;53.65
15678;BME280;7939;50.814;6.368;2023-07-20T05:34:40;99801.81;;;22.27;53.18
15678;BME280;7939;50.814;6.368;2023-07-20T05:37:06;99794.00;;;22.27;53.58
15678;BME280;7939;50.814;6.368;2023-07-20T05:39:38;99794.09;;;22.25;53.76
15678;BME280;7939;50.814;6.368;2023-07-20T05:42:05;99785.38;;;22.26;53.80
15678;BME280;7939;50.814;6.368;2023-07-20T05:44:32;99794.16;;;22.24;53.82
15678;BME280;7939;50.814;6.368;2023-07-20T05:47:00;99791.50;;;22.25;53.87
15678;BME280;7939;50.814;6.368;2023-07-20T05:49:28;99788.81;;;22.27;53.81
15678;BME280;7939;50.814;6.368;2023-07-20T05:51:55;99797.47;;;22.27;53.97
15678;BME280;7939;50.814;6.368;2023-07-20T05:54:23;99801.03;;;22.25;54.08
15678;BME280;7939;50.814;6.368;2023-07-20T05:56:50;99801.91;;;22.25;54.03
15678;BME280;7939;50.814;6.368;2023-07-20T05:59:17;99807.13;;;22.25;54.06
15678;BME280;7939;50.814;6.368;2023-07-20T06:01:44;99808.84;;;22.25;53.83
15678;BME280;7939;50.814;6.368;2023-07-20T06:04:13;99806.19;;;22.26;53.99
15678;BME280;7939;50.814;6.368;2023-07-20T06:06:40;99818.38;;;22.26;53.96
15678;BME280;7939;50.814;6.368;2023-07-20T06:09:07;99817.53;;;22.25;54.22
15678;BME280;7939;50.814;6.368;2023-07-20T06:11:37;99814.84;;;22.27;54.11
15678;BME280;7939;50.814;6.368;2023-07-20T06:14:03;99820.13;;;22.25;54.27
15678;BME280;7939;50.814;6.368;2023-07-20T06:16:30;99816.72;;;22.23;54.39
15678;BME280;7939;50.814;6.368;2023-07-20T06:18:59;99825.53;;;22.21;54.37
15678;BME280;7939;50.814;6.368;2023-07-20T06:21:27;99823.69;;;22.23;54.04
15678;BME280;7939;50.814;6.368;2023-07-20T06:23:54;99815.06;;;22.22;54.11
15678;BME280;7939;50.814;6.368;2023-07-20T06:26:21;99815.81;;;22.24;54.17
15678;BME280;7939;50.814;6.368;2023-07-20T06:28:47;99824.63;;;22.22;54.25
15678;BME280;7939;50.814;6.368;2023-07-20T06:31:14;99825.34;;;22.25;54.18
15678;BME280;7939;50.814;6.368;2023-07-20T06:33:41;99829.75;;;22.23;54.20
15678;BME280;7939;50.814;6.368;2023-07-20T06:36:08;99833.19;;;22.24;53.98
15678;BME280;7939;50.814;6.368;2023-07-20T06:38:36;99828.16;;;22.21;54.38
15678;BME280;7939;50.814;6.368;2023-07-20T06:41:02;99829.06;;;22.20;54.35
15678;BME280;7939;50.814;6.368;2023-07-20T06:43:29;99825.53;;;22.21;54.29
15678;BME280;7939;50.814;6.368;2023-07-20T06:45:56;99823.69;;;22.23;54.50
15678;BME280;7939;50.814;6.368;2023-07-20T06:48:22;99824.53;;;22.23;54.23
15678;BME280;7939;50.814;6.368;2023-07-20T06:50:49;99830.53;;;22.25;54.39
15678;BME280;7939;50.814;6.368;2023-07-20T06:53:15;99828.69;;;22.27;54.32
15678;BME280;7939;50.814;6.368;2023-07-20T06:55:44;99834.88;;;22.25;54.69
15678;BME280;7939;50.814;6.368;2023-07-20T06:58:11;99837.56;;;22.23;54.45
15678;BME280;7939;50.814;6.368;2023-07-20T07:00:38;99833.44;;;22.19;54.81
15678;BME280;7939;50.814;6.368;2023-07-20T07:03:05;99840.25;;;22.22;54.42
15678;BME280;7939;50.814;6.368;2023-07-20T07:05:36;99847.06;;;22.24;54.35
15678;BME280;7939;50.814;6.368;2023-07-20T07:08:04;99845.38;;;22.23;54.11
15678;BME280;7939;50.814;6.368;2023-07-20T07:10:31;99835.75;;;22.25;54.18
15678;BME280;7939;50.814;6.368;2023-07-20T07:12:59;99833.81;;;22.29;54.21
15678;BME280;7939;50.814;6.368;2023-07-20T07:15:26;99839.97;;;22.28;54.29
15678;BME280;7939;50.814;6.368;2023-07-20T07:17:53;99837.28;;;22.29;54.38
15678;BME280;7939;50.814;6.368;2023-07-20T07:20:19;99838.19;;;22.28;54.15
15678;BME280;7939;50.814;6.368;2023-07-20T07:22:47;99845.09;;;22.29;54.00
15678;BME280;7939;50.814;6.368;2023-07-20T07:25:13;99829.66;;;22.25;53.99
15678;BME280;7939;50.814;6.368;2023-07-20T07:27:40;99827.78;;;22.28;54.04
15678;BME280;7939;50.814;6.368;2023-07-20T07:30:09;99842.41;;;22.31;53.96
15678;BME280;7939;50.814;6.368;2023-07-20T07:32:36;99836.31;;;22.32;54.01
15678;BME280;7939;50.814;6.368;2023-07-20T07:35:03;99837.81;;;22.36;53.71
15678;BME280;7939;50.814;6.368;2023-07-20T07:37:30;99849.78;;;22.40;53.81
15678;BME280;7939;50.814;6.368;2023-07-20T07:39:57;99852.31;;;22.42;53.53
15678;BME280;7939;50.814;6.368;2023-07-20T07:42:24;99852.09;;;22.46;53.42
15678;BME280;7939;50.814;6.368;2023-07-20T07:44:50;99853.94;;;22.44;53.24
15678;BME280;7939;50.814;6.368;2023-07-20T07:47:18;99852.09;;;22.46;53.43
15678;BME280;7939;50.814;6.368;2023-07-20T07:49:45;99851.19;;;22.47;53.21
15678;BME280;7939;50.814;6.368;2023-07-20T07:52:11;99858.88;;;22.50;53.28
15678;BME280;7939;50.814;6.368;2023-07-20T07:54:39;99851.91;;;22.51;52.81
15678;BME280;7939;50.814;6.368;2023-07-20T07:57:06;99855.34;;;22.51;52.83
15678;BME280;7939;50.814;6.368;2023-07-20T07:59:33;99856.19;;;22.52;52.75
15678;BME280;7939;50.814;6.368;2023-07-20T08:02:02;99859.41;;;22.57;52.66
15678;BME280;7939;50.814;6.368;2023-07-20T08:04:30;99861.00;;;22.59;52.20
15678;BME280;7939;50.814;6.368;2023-07-20T08:06:57;99859.13;;;22.63;51.91
15678;BME280;7939;50.814;6.368;2023-07-20T08:09:24;99855.34;;;22.69;52.09
15678;BME280;7939;50.814;6.368;2023-07-20T08:11:51;99858.75;;;22.71;51.81
15678;BME280;7939;50.814;6.368;2023-07-20T08:14:17;99855.28;;;22.70;50.97
15678;BME280;7939;50.814;6.368;2023-07-20T08:16:44;99858.56;;;22.74;50.94
15678;BME280;7939;50.814;6.368;2023-07-20T08:19:11;99857.66;;;22.75;50.84
15678;BME280;7939;50.814;6.368;2023-07-20T08:21:39;99868.06;;;22.75;51.00
15678;BME280;7939;50.814;6.368;2023-07-20T08:24:06;99866.81;;;22.83;50.98
15678;BME280;7939;50.814;6.368;2023-07-20T08:28:59;99857.97;;;22.86;50.93
15678;BME280;7939;50.814;6.368;2023-07-20T08:31:25;99855.09;;;22.92;50.85
15678;BME280;7939;50.814;6.368;2023-07-20T08:33:53;99848.75;;;22.98;50.42
15678;BME280;7939;50.814;6.368;2023-07-20T08:36:22;99860.75;;;23.00;50.08
15678;BME280;7939;50.814;6.368;2023-07-20T08:38:50;99859.03;;;23.01;49.82
15678;BME280;7939;50.814;6.368;2023-07-20T08:41:18;99862.31;;;23.04;49.68
15678;BME280;7939;50.814;6.368;2023-07-20T08:43:46;99870.84;;;23.08;49.66
15678;BME280;7939;50.814;6.368;2023-07-20T08:46:14;99870.59;;;23.12;49.77
15678;BME280;7939;50.814;6.368;2023-07-20T08:48:43;99864.47;;;23.13;49.61
15678;BME280;7939;50.814;6.368;2023-07-20T08:51:11;99866.38;;;23.10;48.97
15678;BME280;7939;50.814;6.368;2023-07-20T08:53:38;99867.06;;;23.13;49.07
15678;BME280;7939;50.814;6.368;2023-07-20T08:56:06;99863.47;;;23.16;49.05
15678;BME280;7939;50.814;6.368;2023-07-20T08:58:36;99856.47;;;23.17;48.86
15678;BME280;7939;50.814;6.368;2023-07-20T09:01:04;99860.53;;;23.22;48.39
15678;BME280;7939;50.814;6.368;2023-07-20T09:03:31;99857.84;;;23.24;48.14
15678;BME280;7939;50.814;6.368;2023-07-20T09:05:58;99862.75;;;23.30;48.66
15678;BME280;7939;50.814;6.368;2023-07-20T09:08:25;99863.44;;;23.33;48.56
15678;BME280;7939;50.814;6.368;2023-07-20T09:10:51;99866.19;;;23.30;48.19
15678;BME280;7939;50.814;6.368;2023-07-20T09:13:19;99866.13;;;23.32;48.12
15678;BME280;7939;50.814;6.368;2023-07-20T09:15:46;99866.81;;;23.35;47.56
15678;BME280;7939;50.814;6.368;2023-07-20T09:18:23;99852.72;;;23.39;47.78
15678;BME280;7939;50.814;6.368;2023-07-20T09:20:50;99847.22;;;23.44;47.76
15678;BME280;7939;50.814;6.368;2023-07-20T09:23:16;99852.22;;;23.49;47.61
15678;BME280;7939;50.814;6.368;2023-07-20T09:25:43;99856.44;;;23.51;48.08
15678;BME280;7939;50.814;6.368;2023-07-20T09:28:11;99848.31;;;23.57;47.83
15678;BME280;7939;50.814;6.368;2023-07-20T09:30:39;99853.28;;;23.62;47.73
15678;BME280;7939;50.814;6.368;2023-07-20T09:33:18;99851.38;;;23.65;47.72
15678;BME280;7939;50.814;6.368;2023-07-20T09:35:45;99851.81;;;23.74;47.23
15678;BME280;7939;50.814;6.368;2023-07-20T09:38:11;99855.84;;;23.79;47.23
15678;BME280;7939;50.814;6.368;2023-07-20T09:40:38;99855.94;;;23.78;46.50
15678;BME280;7939;50.814;6.368;2023-07-20T09:43:07;99857.63;;;23.79;45.89
15678;BME280;7939;50.814;6.368;2023-07-20T09:45:35;99851.38;;;23.81;46.87
15678;BME280;7939;50.814;6.368;2023-07-20T09:48:07;99848.53;;;23.86;46.30
15678;BME280;7939;50.814;6.368;2023-07-20T09:50:39;99849.28;;;23.88;46.31
15678;BME280;7939;50.814;6.368;2023-07-20T09:53:07;99850.13;;;23.88;46.31
15678;BME280;7939;50.814;6.368;2023-07-20T09:55:34;99849.16;;;23.91;46.11
15678;BME280;7939;50.814;6.368;2023-07-20T09:58:02;99843.00;;;23.92;46.27
15678;BME280;7939;50.814;6.368;2023-07-20T10:00:29;99850.59;;;23.97;46.17
15678;BME280;7939;50.814;6.368;2023-07-20T10:02:56;99844.25;;;24.01;46.31
15678;BME280;7939;50.814;6.368;2023-07-20T10:05:27;99845.13;;;24.01;46.43
15678;BME280;7939;50.814;6.368;2023-07-20T10:07:59;99849.41;;;24.02;46.13
15678;BME280;7939;50.814;6.368;2023-07-20T10:10:28;99850.25;;;24.03;46.09
15678;BME280;7939;50.814;6.368;2023-07-20T10:12:57;99849.47;;;24.01;46.02
15678;BME280;7939;50.814;6.368;2023-07-20T10:15:29;99851.09;;;24.03;45.75
15678;BME280;7939;50.814;6.368;2023-07-20T10:18:03;99842.22;;;24.06;45.80
15678;BME280;7939;50.814;6.368;2023-07-20T10:20:35;99853.50;;;24.06;46.25
15678;BME280;7939;50.814;6.368;2023-07-20T10:23:04;99843.91;;;24.07;45.88
15678;BME280;7939;50.814;6.368;2023-07-20T10:25:31;99841.25;;;24.08;45.89
15678;BME280;7939;50.814;6.368;2023-07-20T10:27:59;99836.03;;;24.08;46.33
15678;BME280;7939;50.814;6.368;2023-07-20T10:30:26;99841.16;;;24.10;46.12
15678;BME280;7939;50.814;6.368;2023-07-20T10:32:53;99845.44;;;24.11;46.18
15678;BME280;7939;50.814;6.368;2023-07-20T10:35:20;99836.59;;;24.13;46.00
15678;BME280;7939;50.814;6.368;2023-07-20T10:37:53;99839.19;;;24.13;45.96
15678;BME280;7939;50.814;6.368;2023-07-20T10:40:28;99838.34;;;24.13;45.28
15678;BME280;7939;50.814;6.368;2023-07-20T10:43:00;99833.13;;;24.13;45.60
15678;BME280;7939;50.814;6.368;2023-07-20T10:45:40;99832.22;;;24.14;45.57
15678;BME280;7939;50.814;6.368;2023-07-20T10:48:13;99829.69;;;24.12;45.73
15678;BME280;7939;50.814;6.368;2023-07-20T10:50:41;99818.25;;;24.15;45.46
15678;BME280;7939;50.814;6.368;2023-07-20T10:53:13;99814.84;;;24.13;45.75
15678;BME280;7939;50.814;6.368;2023-07-20T10:55:41;99814.69;;;24.16;45.78
15678;BME280;7939;50.814;6.368;2023-07-20T10:58:10;99830.28;;;24.17;45.41
15678;BME280;7939;50.814;6.368;2023-07-20T11:00:38;99825.81;;;24.19;45.54
15678;BME280;7939;50.814;6.368;2023-07-20T11:03:27;99825.75;;;24.21;45.51
15678;BME280;7939;50.814;6.368;2023-07-20T11:05:54;99827.56;;;24.19;44.69
15678;BME280;7939;50.814;6.368;2023-07-20T11:08:39;99827.41;;;24.22;45.23
15678;BME280;7939;50.814;6.368;2023-07-20T11:11:22;99823.03;;;24.22;44.94
15678;BME280;7939;50.814;6.368;2023-07-20T11:13:57;99826.16;;;24.29;44.84
15678;BME280;7939;50.814;6.368;2023-07-20T11:16:38;99827.66;;;24.33;45.15
15678;BME280;7939;50.814;6.368;2023-07-20T11:19:06;99819.78;;;24.35;44.80
15678;BME280;7939;50.814;6.368;2023-07-20T11:21:41;99817.81;;;24.38;44.90
15678;BME280;7939;50.814;6.368;2023-07-20T11:24:09;99832.41;;;24.42;44.54
15678;BME280;7939;50.814;6.368;2023-07-20T11:26:42;99824.31;;;24.47;44.49
15678;BME280;7939;50.814;6.368;2023-07-20T11:29:09;99823.19;;;24.51;44.10
15678;BME280;7939;50.814;6.368;2023-07-20T11:31:37;99813.50;;;24.53;44.05
15678;BME280;7939;50.814;6.368;2023-07-20T11:34:04;99819.31;;;24.58;43.56
15678;BME280;7939;50.814;6.368;2023-07-20T11:36:30;99819.13;;;24.61;43.43
15678;BME280;7939;50.814;6.368;2023-07-20T11:38:58;99818.97;;;24.64;43.61
15678;BME280;7939;50.814;6.368;2023-07-20T11:41:26;99810.94;;;24.67;43.60
15678;BME280;7939;50.814;6.368;2023-07-20T11:43:54;99815.91;;;24.72;42.85
15678;BME280;7939;50.814;6.368;2023-07-20T11:46:20;99812.16;;;24.76;42.83
15678;BME280;7939;50.814;6.368;2023-07-20T11:48:47;99809.56;;;24.76;42.15
15678;BME280;7939;50.814;6.368;2023-07-20T11:51:14;99807.97;;;24.73;41.71
15678;BME280;7939;50.814;6.368;2023-07-20T11:53:41;99802.66;;;24.75;41.67
15678;BME280;7939;50.814;6.368;2023-07-20T11:56:08;99806.03;;;24.77;42.69
15678;BME280;7939;50.814;6.368;2023-07-20T11:58:36;99802.59;;;24.77;42.18
15678;BME280;7939;50.814;6.368;2023-07-20T12:01:07;99799.88;;;24.78;42.57
15678;BME280;7939;50.814;6.368;2023-07-20T12:03:35;99798.84;;;24.81;42.41
15678;BME280;7939;50.814;6.368;2023-07-20T12:06:06;99793.50;;;24.82;42.65
15678;BME280;7939;50.814;6.368;2023-07-20T12:08:33;99799.41;;;24.86;42.60
15678;BME280;7939;50.814;6.368;2023-07-20T12:11:00;99792.41;;;24.86;42.14
15678;BME280;7939;50.814;6.368;2023-07-20T12:13:37;99786.50;;;24.83;42.11
15678;BME280;7939;50.814;6.368;2023-07-20T12:16:09;99788.84;;;24.87;42.36
15678;BME280;7939;50.814;6.368;2023-07-20T12:18:36;99787.09;;;24.88;42.14
15678;BME280;7939;50.814;6.368;2023-07-20T12:21:03;99795.75;;;24.88;42.00
15678;BME280;7939;50.814;6.368;2023-07-20T12:23:35;99774.94;;;24.87;42.12
15678;BME280;7939;50.814;6.368;2023-07-20T12:26:02;99776.91;;;24.83;41.91
15678;BME280;7939;50.814;6.368;2023-07-20T12:28:31;99781.84;;;24.88;41.64
15678;BME280;7939;50.814;6.368;2023-07-20T12:30:59;99781.78;;;24.89;41.59
15678;BME280;7939;50.814;6.368;2023-07-20T12:33:26;99782.53;;;24.91;41.39
15678;BME280;7939;50.814;6.368;2023-07-20T12:35:52;99777.94;;;24.95;41.11
15678;BME280;7939;50.814;6.368;2023-07-20T12:38:21;99768.63;;;24.91;40.96
15678;BME280;7939;50.814;6.368;2023-07-20T12:40:49;99769.19;;;24.96;40.94
15678;BME280;7939;50.814;6.368;2023-07-20T12:43:16;99769.94;;;24.98;41.05
15678;BME280;7939;50.814;6.368;2023-07-20T12:45:43;99772.34;;;25.01;40.84
15678;BME280;7939;50.814;6.368;2023-07-20T12:48:10;99774.06;;;25.02;40.24
15678;BME280;7939;50.814;6.368;2023-07-20T12:50:37;99763.50;;;25.03;40.62
15678;BME280;7939;50.814;6.368;2023-07-20T12:53:04;99772.13;;;25.06;40.55
15678;BME280;7939;50.814;6.368;2023-07-20T12:55:31;99762.59;;;25.05;40.12
15678;BME280;7939;50.814;6.368;2023-07-20T12:57:58;99751.19;;;25.06;39.79
15678;BME280;7939;50.814;6.368;2023-07-20T13:00:25;99768.66;;;25.05;39.37
15678;BME280;7939;50.814;6.368;2023-07-20T13:02:52;99767.56;;;25.09;39.66
15678;BME280;7939;50.814;6.368;2023-07-20T13:05:20;99758.03;;;25.08;39.35
15678;BME280;7939;50.814;6.368;2023-07-20T13:07:46;99758.03;;;25.08;38.91
15678;BME280;7939;50.814;6.368;2023-07-20T13:10:13;99754.47;;;25.09;39.29
15678;BME280;7939;50.814;6.368;2023-07-20T13:12:39;99751.84;;;25.09;39.40
15678;BME280;7939;50.814;6.368;2023-07-20T13:15:07;99757.00;;;25.11;38.95
15678;BME280;7939;50.814;6.368;2023-07-20T13:17:35;99746.53;;;25.11;38.88